^^
Lisbon, NH - Weather Station Historical Data
Daily Summary for May 20, 2021 Units:  English    Metric   Both
Daily Weekly Monthly Yearly
  High: Low: Average:
Temperature: 85.6 °F 47.3 °F 67.6 °F
Dew Point: 59.7 °F 46.4 °F 50.1 °F
Humidity: 99% 26% 60%
Wind Speed: 4.3mph 0mph 1.1mph
Wind Gust: 12mph - -
Wind- - SSW
Pressure: 30.43 in 30.29 in -
Precipitation: 0.00 in    
 
 
Tabular Data for May 20, 2021
Time Temperature Dew Point Pressure Wind Wind Speed Wind Gust Humidity Rainfall Rate (Hourly) solar
00:04 54.7 °F 50.2 °F 30.31 in Calm   1 mph 84.6% 0.00 in 0 W/m2
00:09 54.5 °F 50.1 °F 30.31 in Calm     85% 0.00 in 0 W/m2
00:14 54.4 °F 50 °F 30.31 in Calm     85.2% 0.00 in 0 W/m2
00:19 54.2 °F 50.1 °F 30.31 in Calm     86% 0.00 in 0 W/m2
00:24 54.1 °F 50 °F 30.31 in Calm     86% 0.00 in 0 W/m2
00:29 53.8 °F 49.8 °F 30.31 in Calm     86% 0.00 in 0 W/m2
00:30 53.8 °F 49.7 °F 30.31 in Calm     86% 0.00 in 0 W/m2
00:39 53.5 °F 49.4 °F 30.31 in Calm     86% 0.00 in 0 W/m2
00:44 53.3 °F 49.2 °F 30.32 in Calm     86% 0.00 in 0 W/m2
00:49 53.2 °F 49.4 °F 30.32 in Calm     86.8% 0.00 in 0 W/m2
00:54 53.1 °F 49.4 °F 30.32 in Calm     87% 0.00 in 0 W/m2
00:59 53 °F 49.4 °F 30.32 in Calm     87.8% 0.00 in 0 W/m2
01:04 52.8 °F 49.4 °F 30.32 in Calm     88% 0.00 in 0 W/m2
01:09 52.6 °F 49.2 °F 30.32 in Calm     88% 0.00 in 0 W/m2
01:14 52.5 °F 49.1 °F 30.32 in Calm   1 mph 88.1% 0.00 in 0 W/m2
01:19 52.3 °F 49.2 °F 30.32 in Calm   1 mph 89% 0.00 in 0 W/m2
01:24 52.2 °F 49.1 °F 30.32 in Calm     89% 0.00 in 0 W/m2
01:29 52.1 °F 49.2 °F 30.33 in Calm     89.8% 0.00 in 0 W/m2
01:34 52 °F 49.2 °F 30.33 in Calm     90% 0.00 in 0 W/m2
01:39 51.9 °F 49 °F 30.33 in Calm     90% 0.00 in 0 W/m2
01:44 51.8 °F 49.2 °F 30.33 in Calm     90.8% 0.00 in 0 W/m2
01:49 51.6 °F 48.9 °F 30.33 in Calm     90.4% 0.00 in 0 W/m2
01:54 51.2 °F 48.4 °F 30.33 in Calm     90% 0.00 in 0 W/m2
01:59 50.9 °F 48.2 °F 30.34 in Calm     90.3% 0.00 in 0 W/m2
02:04 50.8 °F 48.3 °F 30.34 in Calm     91% 0.00 in 0 W/m2
02:09 50.7 °F 48.2 °F 30.34 in Calm     91% 0.00 in 0 W/m2
02:14 50.6 °F 48 °F 30.34 in Calm     91% 0.00 in 0 W/m2
02:19 50.4 °F 48.1 °F 30.34 in Calm     91.8% 0.00 in 0 W/m2
02:24 50.4 °F 48.2 °F 30.34 in Calm     92% 0.00 in 0 W/m2
02:29 50.4 °F 48.3 °F 30.34 in Calm     92.3% 0.00 in 0 W/m2
02:34 50.2 °F 48.3 °F 30.34 in Calm     93% 0.00 in 0 W/m2
02:39 50.2 °F 48.3 °F 30.34 in Calm   1 mph 93% 0.00 in 0 W/m2
02:44 50.2 °F 48.4 °F 30.35 in Calm   1 mph 93.4% 0.00 in 0 W/m2
02:49 50.1 °F 48.4 °F 30.35 in Calm     94% 0.00 in 0 W/m2
02:54 49.9 °F 48.2 °F 30.35 in Calm     94% 0.00 in 0 W/m2
02:59 49.8 °F 48.2 °F 30.35 in Calm     94% 0.00 in 0 W/m2
03:04 49.6 °F 48 °F 30.35 in Calm     94% 0.00 in 0 W/m2
03:09 49.5 °F 47.9 °F 30.35 in Calm     94% 0.00 in 0 W/m2
03:14 49.5 °F 47.9 °F 30.35 in Calm     94.3% 0.00 in 0 W/m2
03:19 49.3 °F 47.9 °F 30.35 in Calm     95% 0.00 in 0 W/m2
03:24 49.3 °F 47.9 °F 30.35 in North 0.3 mph 2 mph 95% 0.00 in 0 W/m2
03:29 49.2 °F 47.8 °F 30.35 in North 0.1 mph 2 mph 95% 0.00 in 0 W/m2
03:34 49.1 °F 47.8 °F 30.35 in Calm     95% 0.00 in 0 W/m2
03:39 49 °F 47.6 °F 30.35 in Calm     95% 0.00 in 0 W/m2
03:44 49 °F 47.8 °F 30.36 in North 0.5 mph 2 mph 95.6% 0.00 in 0 W/m2
03:49 49 °F 47.9 °F 30.36 in Calm   1 mph 96% 0.00 in 0 W/m2
03:54 48.9 °F 47.8 °F 30.36 in Calm     96% 0.00 in 0 W/m2
03:59 48.9 °F 47.8 °F 30.36 in Calm     96% 0.00 in 0 W/m2
04:04 48.9 °F 47.8 °F 30.36 in Calm     96% 0.00 in 0 W/m2
04:09 48.8 °F 47.7 °F 30.36 in North 0.1 mph 1 mph 96% 0.00 in 0 W/m2
04:14 48.7 °F 47.6 °F 30.36 in Calm     96% 0.00 in 0 W/m2
04:19 48.7 °F 47.6 °F 30.36 in Calm     96% 0.00 in 0 W/m2
04:24 48.6 °F 47.5 °F 30.36 in Calm   1 mph 96% 0.00 in 0 W/m2
04:29 48.5 °F 47.4 °F 30.36 in Calm     96% 0.00 in 0 W/m2
04:34 48.4 °F 47.4 °F 30.36 in Calm     96.2% 0.00 in 0 W/m2
04:39 48.3 °F 47.2 °F 30.36 in Calm     96% 0.00 in 0 W/m2
04:44 48.1 °F 47.3 °F 30.36 in Calm     96.8% 0.00 in 0 W/m2
04:49 48.1 °F 47.3 °F 30.36 in Calm     97% 0.00 in 0 W/m2
04:54 48 °F 47.2 °F 30.36 in Calm     97% 0.00 in 0 W/m2
04:59 47.9 °F 47.1 °F 30.37 in Calm     97% 0.00 in 0 W/m2
05:04 47.8 °F 47 °F 30.37 in Calm     97% 0.00 in 0 W/m2
05:09 47.7 °F 46.9 °F 30.37 in Calm     97% 0.00 in 5 W/m2
05:14 47.6 °F 46.8 °F 30.38 in Calm     97% 0.00 in 7 W/m2
05:19 47.6 °F 47 °F 30.38 in Calm     97.7% 0.00 in 9 W/m2
05:24 47.4 °F 46.9 °F 30.38 in Calm     98% 0.00 in 11 W/m2
05:29 47.4 °F 46.9 °F 30.39 in Calm     98% 0.00 in 14 W/m2
05:34 47.3 °F 46.8 °F 30.39 in Calm     98% 0.00 in 18 W/m2
05:39 47.3 °F 46.8 °F 30.39 in Calm     98% 0.00 in 23 W/m2
05:44 47.3 °F 46.8 °F 30.39 in Calm     98% 0.00 in 32 W/m2
05:49 47.3 °F 46.8 °F 30.39 in Calm     98% 0.00 in 40 W/m2
05:54 47.3 °F 46.8 °F 30.39 in NNW 0.1 mph 1 mph 98% 0.00 in 46 W/m2
05:59 47.4 °F 46.9 °F 30.40 in Calm   1 mph 98% 0.00 in 56 W/m2
06:04 47.4 °F 46.9 °F 30.40 in Calm     98% 0.00 in 76 W/m2
06:09 47.6 °F 47.3 °F 30.40 in Calm     99% 0.00 in 70 W/m2
06:14 47.8 °F 47.5 °F 30.41 in NNW 0.1 mph 1 mph 99% 0.00 in 104 W/m2
06:19 48.2 °F 48 °F 30.41 in NNE 1.1 mph 2 mph 99% 0.00 in 125 W/m2
06:24 48.6 °F 48.2 °F 30.41 in NE 1.4 mph 2 mph 98.4% 0.00 in 139 W/m2
06:29 48.9 °F 48.3 °F 30.41 in ENE 1.8 mph 3 mph 98% 0.00 in 160 W/m2
06:34 49.2 °F 48.5 °F 30.41 in ENE 1.2 mph 2 mph 97.5% 0.00 in 185 W/m2
06:39 49.6 °F 48.8 °F 30.41 in ENE 0.8 mph 2 mph 97% 0.00 in 194 W/m2
06:44 50.1 °F 49 °F 30.42 in NE 1.2 mph 2 mph 96.1% 0.00 in 202 W/m2
06:49 50.7 °F 49.2 °F 30.42 in NE 1.2 mph 3 mph 94.8% 0.00 in 211 W/m2
06:54 51.2 °F 49.3 °F 30.42 in ENE 1.7 mph 3 mph 93.2% 0.00 in 211 W/m2
06:59 51.6 °F 49.1 °F 30.42 in ENE 2.2 mph 3 mph 91.2% 0.00 in 135 W/m2
07:04 51.6 °F 48.8 °F 30.42 in ENE 1 mph 3 mph 90.2% 0.00 in 153 W/m2
07:09 51.6 °F 48.8 °F 30.42 in ENE 0.3 mph 2 mph 90% 0.00 in 97 W/m2
07:14 51.6 °F 48.8 °F 30.42 in ENE 0.4 mph 1 mph 90% 0.00 in 55 W/m2
07:19 51.6 °F 48.6 °F 30.42 in ENE 0.2 mph 2 mph 89.6% 0.00 in 81 W/m2
07:24 51.7 °F 48.8 °F 30.42 in ENE 0.4 mph 2 mph 89.8% 0.00 in 146 W/m2
07:29 51.7 °F 48.8 °F 30.42 in ENE 1 mph 2 mph 89.7% 0.00 in 287 W/m2
07:34 52.1 °F 49 °F 30.42 in NE 1.2 mph 2 mph 89.3% 0.00 in 287 W/m2
07:39 52.4 °F 49.1 °F 30.42 in NE 1 mph 2 mph 88.2% 0.00 in 373 W/m2
07:44 53.3 °F 49.8 °F 30.42 in NE 1.7 mph 3 mph 87.9% 0.00 in 378 W/m2
07:49 54.3 °F 49.9 °F 30.42 in ENE 1.8 mph 3 mph 85.2% 0.00 in 408 W/m2
07:54 54.9 °F 50 °F 30.42 in ENE 2.6 mph 5 mph 83.5% 0.00 in 428 W/m2
07:59 55.8 °F 50 °F 30.42 in ENE 2.5 mph 5 mph 80.9% 0.00 in 431 W/m2
08:04 56.6 °F 50 °F 30.42 in ENE 2 mph 3 mph 78.6% 0.00 in 417 W/m2
08:09 57.2 °F 50.2 °F 30.42 in ENE 2.4 mph 4 mph 77.4% 0.00 in 443 W/m2
08:14 57.7 °F 50.1 °F 30.43 in ENE 1.7 mph 4 mph 75.8% 0.00 in 466 W/m2
08:19 58 °F 50.4 °F 30.43 in NE 2.3 mph 3 mph 75.7% 0.00 in 493 W/m2
08:24 58.8 °F 50.2 °F 30.43 in ENE 2.1 mph 5 mph 73.1% 0.00 in 505 W/m2
08:29 59.6 °F 50.2 °F 30.43 in ENE 1.8 mph 3 mph 71% 0.00 in 523 W/m2
08:34 59.9 °F 50.4 °F 30.42 in ENE 1.7 mph 3 mph 70.7% 0.00 in 538 W/m2
08:39 60.6 °F 50.8 °F 30.42 in ENE 1.7 mph 3 mph 70.2% 0.00 in 552 W/m2
08:44 61.2 °F 50.7 °F 30.42 in ENE 1.4 mph 2 mph 68.4% 0.00 in 568 W/m2
08:49 61.6 °F 51 °F 30.42 in ENE 1.1 mph 2 mph 68.1% 0.00 in 586 W/m2
08:54 62 °F 51 °F 30.42 in East 0.9 mph 2 mph 67.2% 0.00 in 600 W/m2
08:59 62.4 °F 50.1 °F 30.42 in ESE 0.6 mph 2 mph 64% 0.00 in 614 W/m2
09:04 63.1 °F 49.8 °F 30.42 in ESE 0.6 mph 2 mph 61.9% 0.00 in 628 W/m2
09:09 64 °F 50.4 °F 30.42 in ENE 0.9 mph 2 mph 61.3% 0.00 in 642 W/m2
09:14 64.9 °F 50.4 °F 30.42 in South 1.2 mph 3 mph 59.4% 0.00 in 655 W/m2
09:19 65.3 °F 50.7 °F 30.41 in South 1.5 mph 3 mph 59.2% 0.00 in 665 W/m2
09:24 65.6 °F 51 °F 30.41 in SSW 1.3 mph 3 mph 59.3% 0.00 in 679 W/m2
09:29 66.6 °F 51.3 °F 30.41 in SSW 0.7 mph 3 mph 57.9% 0.00 in 695 W/m2
09:34 67.9 °F 51.5 °F 30.40 in SSW 2.2 mph 6 mph 55.7% 0.00 in 706 W/m2
09:39 68.3 °F 51 °F 30.40 in SSW 3.2 mph 6 mph 53.8% 0.00 in 713 W/m2
09:44 68.8 °F 51.6 °F 30.40 in South 2.1 mph 5 mph 54.1% 0.00 in 723 W/m2
09:49 69.2 °F 51.3 °F 30.40 in SSW 2.8 mph 6 mph 52.8% 0.00 in 728 W/m2
09:54 69.2 °F 51.3 °F 30.40 in SSW 3.2 mph 6 mph 53% 0.00 in 750 W/m2
09:59 69.4 °F 51.3 °F 30.40 in SSW 1.4 mph 6 mph 52.4% 0.00 in 760 W/m2
10:04 70.1 °F 51.8 °F 30.39 in SSW 2.9 mph 6 mph 52.2% 0.00 in 760 W/m2
10:09 70.4 °F 51.7 °F 30.39 in SSW 1.6 mph 6 mph 51.5% 0.00 in 787 W/m2
10:14 71.2 °F 52.2 °F 30.39 in SSW 1.3 mph 3 mph 51% 0.00 in 802 W/m2
10:19 71.8 °F 52 °F 30.39 in South 1.1 mph 3 mph 49.6% 0.00 in 811 W/m2
10:24 72.3 °F 52.1 °F 30.39 in SSW 1.4 mph 3 mph 49% 0.00 in 822 W/m2
10:29 72.5 °F 51.8 °F 30.39 in SSW 2.5 mph 6 mph 48.2% 0.00 in 830 W/m2
10:34 73.1 °F 51.7 °F 30.38 in SSW 2.5 mph 6 mph 47.1% 0.00 in 838 W/m2
10:39 73.7 °F 52 °F 30.38 in WSW 1.2 mph 5 mph 46.5% 0.00 in 848 W/m2
10:44 74.4 °F 51.1 °F 30.38 in SW 1.2 mph 5 mph 44% 0.00 in 855 W/m2
10:49 75 °F 51.4 °F 30.38 in West 1.5 mph 4 mph 43.6% 0.00 in 864 W/m2
10:54 75.7 °F 50 °F 30.38 in West 1 mph 6 mph 40.4% 0.00 in 860 W/m2
10:59 76.2 °F 49.5 °F 30.38 in SSW 1.5 mph 7 mph 39.1% 0.00 in 874 W/m2
11:04 76.2 °F 49.8 °F 30.37 in SSW 3.1 mph 7 mph 39.4% 0.00 in 885 W/m2
11:09 76.5 °F 49.9 °F 30.37 in SSW 3.3 mph 10 mph 39.3% 0.00 in 892 W/m2
11:14 76.6 °F 49.5 °F 30.37 in SW 2.8 mph 7 mph 38.5% 0.00 in 903 W/m2
11:19 77.1 °F 49.6 °F 30.37 in SSW 1.9 mph 6 mph 38.1% 0.00 in 906 W/m2
11:24 77.5 °F 50.5 °F 30.37 in South 1.1 mph 5 mph 38.9% 0.00 in 906 W/m2
11:29 78.1 °F 51.1 °F 30.37 in NNW 1 mph 4 mph 38.9% 0.00 in 915 W/m2
11:34 78.3 °F 50.3 °F 30.36 in WSW 1.1 mph 4 mph 37.5% 0.00 in 922 W/m2
11:39 78.5 °F 51.1 °F 30.36 in SW 1.4 mph 7 mph 38.4% 0.00 in 926 W/m2
11:44 79 °F 49.8 °F 30.36 in WSW 0.8 mph 4 mph 36% 0.00 in 929 W/m2
11:49 79.6 °F 49.4 °F 30.36 in SSW 1.3 mph 6 mph 34.7% 0.00 in 934 W/m2
11:54 80.1 °F 49.6 °F 30.36 in West 1.3 mph 3 mph 34.6% 0.00 in 940 W/m2
11:59 79.9 °F 49.6 °F 30.36 in SSW 2.6 mph 7 mph 34.8% 0.00 in 940 W/m2
12:04 79.8 °F 50.9 °F 30.35 in SW 1.3 mph 6 mph 36.5% 0.00 in 941 W/m2
12:09 80.4 °F 49.5 °F 30.35 in WSW 1.4 mph 6 mph 34% 0.00 in 947 W/m2
12:14 80.8 °F 50 °F 30.35 in SSW 2 mph 6 mph 34.3% 0.00 in 943 W/m2
12:19 80.8 °F 51 °F 30.35 in SW 1.4 mph 7 mph 35.5% 0.00 in 940 W/m2
12:24 81.2 °F 50.4 °F 30.35 in SW 1.4 mph 5 mph 34.3% 0.00 in 952 W/m2
12:29 81.4 °F 50.5 °F 30.35 in NW 0.9 mph 5 mph 34.2% 0.00 in 950 W/m2
12:34 81.7 °F 50.7 °F 30.34 in SW 2.8 mph 6 mph 34.2% 0.00 in 950 W/m2
12:39 81.4 °F 50.1 °F 30.34 in SSW 0.7 mph 5 mph 33.6% 0.00 in 948 W/m2
12:44 81.3 °F 50.2 °F 30.34 in SSW 2.2 mph 9 mph 33.9% 0.00 in 947 W/m2
12:49 81.5 °F 51.2 °F 30.34 in SSW 2.5 mph 9 mph 34.9% 0.00 in 945 W/m2
12:54 81.9 °F 50.6 °F 30.34 in SSW 2.2 mph 6 mph 33.8% 0.00 in 943 W/m2
12:59 82.1 °F 50 °F 30.34 in SSW 2.3 mph 7 mph 32.8% 0.00 in 940 W/m2
13:04 82.2 °F 49.9 °F 30.33 in West 0.5 mph 7 mph 32.6% 0.00 in 938 W/m2
13:09 82.6 °F 50.7 °F 30.33 in SSW 1.9 mph 5 mph 33.1% 0.00 in 938 W/m2
13:14 82.8 °F 50.5 °F 30.33 in SW 1.9 mph 6 mph 32.6% 0.00 in 938 W/m2
13:19 83.2 °F 50.7 °F 30.33 in SW 1.2 mph 5 mph 32.5% 0.00 in 934 W/m2
13:24 83.7 °F 50.4 °F 30.33 in SW 2.1 mph 6 mph 31.7% 0.00 in 927 W/m2
13:29 84 °F 50.5 °F 30.33 in SSW 1.7 mph 5 mph 31.4% 0.00 in 927 W/m2
13:34 83.8 °F 49.4 °F 30.32 in South 1.1 mph 5 mph 30.4% 0.00 in 927 W/m2
13:39 83.9 °F 49.2 °F 30.32 in SSW 0.5 mph 3 mph 30.1% 0.00 in 918 W/m2
13:44 84.5 °F 49.9 °F 30.32 in SSW 1.7 mph 6 mph 30.3% 0.00 in 913 W/m2
13:49 84.4 °F 49.6 °F 30.32 in West 0.9 mph 3 mph 30% 0.00 in 904 W/m2
13:54 84.4 °F 49.2 °F 30.32 in SSW 1.7 mph 5 mph 29.5% 0.00 in 896 W/m2
13:59 84.4 °F 49.8 °F 30.32 in SSW 1.3 mph 5 mph 30.3% 0.00 in 894 W/m2
14:04 84.6 °F 48.6 °F 30.32 in West 1.8 mph 5 mph 28.7% 0.00 in 887 W/m2
14:09 84.6 °F 47.3 °F 30.32 in South 2.2 mph 8 mph 27.4% 0.00 in 871 W/m2
14:14 84.3 °F 48.5 °F 30.32 in SW 1.7 mph 8 mph 28.9% 0.00 in 873 W/m2
14:19 84.8 °F 48.1 °F 30.31 in NW 0.7 mph 6 mph 28% 0.00 in 869 W/m2
14:24 85.3 °F 49 °F 30.31 in SSW 1.4 mph 6 mph 28.5% 0.00 in 859 W/m2
14:29 85.6 °F 50.4 °F 30.31 in West 1.2 mph 7 mph 29.7% 0.00 in 794 W/m2
14:34 85.6 °F 48.9 °F 30.31 in SSW 2.6 mph 8 mph 28.2% 0.00 in 774 W/m2
14:39 85.4 °F 47.7 °F 30.31 in South 1.9 mph 3 mph 27% 0.00 in 774 W/m2
14:44 85 °F 47.8 °F 30.31 in SSE 2.3 mph 5 mph 27.5% 0.00 in 596 W/m2
14:49 84.7 °F 48.2 °F 30.31 in ESE 1 mph 3 mph 28.1% 0.00 in 549 W/m2
14:54 84.8 °F 48 °F 30.31 in SSW 2.5 mph 7 mph 27.9% 0.00 in 347 W/m2
14:59 85 °F 46.4 °F 30.31 in SW 2.1 mph 6 mph 26.2% 0.00 in 489 W/m2
15:04 85.1 °F 47 °F 30.30 in SE 1.9 mph 6 mph 26.6% 0.00 in 489 W/m2
15:09 85.2 °F 47.5 °F 30.30 in South 1.5 mph 6 mph 27% 0.00 in 417 W/m2
15:14 85.2 °F 47 °F 30.31 in SSW 3.1 mph 7 mph 26.5% 0.00 in 493 W/m2
15:19 85.2 °F 47.6 °F 30.31 in SSW 1 mph 6 mph 27.2% 0.00 in 493 W/m2
15:24 85.3 °F 47.9 °F 30.31 in NNE 0.2 mph 2 mph 27.4% 0.00 in 285 W/m2
15:29 85.5 °F 48.2 °F 30.31 in SSW 2.7 mph 12 mph 27.5% 0.00 in 421 W/m2
15:34 85.3 °F 48.3 °F 30.30 in SSW 1.5 mph 12 mph 27.8% 0.00 in 479 W/m2
15:39 85 °F 47.5 °F 30.30 in NW 0.4 mph 2 mph 27.2% 0.00 in 359 W/m2
15:44 85 °F 47.3 °F 30.30 in Calm   1 mph 27% 0.00 in 359 W/m2
15:49 85.3 °F 47.4 °F 30.30 in West 0.8 mph 4 mph 26.8% 0.00 in 211 W/m2
15:54 85.5 °F 47.4 °F 30.30 in SSW 1.9 mph 5 mph 26.7% 0.00 in 209 W/m2
15:59 85.5 °F 47.9 °F 30.30 in WSW 1.3 mph 6 mph 27.1% 0.00 in 179 W/m2
16:04 85.3 °F 46.6 °F 30.29 in West 0.9 mph 3 mph 26% 0.00 in 167 W/m2
16:09 85.2 °F 47.3 °F 30.29 in SW 0.5 mph 2 mph 26.8% 0.00 in 234 W/m2
16:14 85.3 °F 47 °F 30.29 in WSW 2 mph 6 mph 26.4% 0.00 in 234 W/m2
16:19 85.5 °F 47.7 °F 30.29 in SSW 1.2 mph 6 mph 27% 0.00 in 345 W/m2
16:24 85.5 °F 48.3 °F 30.29 in SSW 2.4 mph 9 mph 27.5% 0.00 in 468 W/m2
16:29 85.5 °F 48 °F 30.29 in WSW 1.4 mph 9 mph 27.3% 0.00 in 468 W/m2
16:34 85.5 °F 49 °F 30.29 in SW 2 mph 8 mph 28.3% 0.00 in 468 W/m2
16:39 85.2 °F 49 °F 30.29 in West 1.6 mph 8 mph 28.6% 0.00 in 222 W/m2
16:44 84.8 °F 49.4 °F 30.29 in WSW 3.2 mph 10 mph 29.4% 0.00 in 199 W/m2
16:49 84.2 °F 49.2 °F 30.29 in SW 3.6 mph 10 mph 29.8% 0.00 in 130 W/m2
16:54 83.8 °F 48.8 °F 30.29 in SSW 2.6 mph 6 mph 29.7% 0.00 in 162 W/m2
16:59 83.6 °F 49.3 °F 30.30 in SW 2.9 mph 9 mph 30.5% 0.00 in 266 W/m2
17:04 83.6 °F 49 °F 30.30 in WSW 2 mph 9 mph 30.1% 0.00 in 296 W/m2
17:09 83.7 °F 50.1 °F 30.30 in West 1.2 mph 7 mph 31.3% 0.00 in 209 W/m2
17:14 83.8 °F 49.4 °F 30.30 in SW 2.8 mph 8 mph 30.4% 0.00 in 162 W/m2
17:19 83.8 °F 48.1 °F 30.29 in SW 3.5 mph 11 mph 28.9% 0.00 in 187 W/m2
17:24 83.8 °F 49.4 °F 30.29 in WSW 3.4 mph 12 mph 30.4% 0.00 in 194 W/m2
17:29 83.5 °F 48.6 °F 30.29 in SW 4.3 mph 11 mph 29.8% 0.00 in 190 W/m2
17:34 83.4 °F 48.2 °F 30.29 in SSW 3.4 mph 12 mph 29.4% 0.00 in 202 W/m2
17:39 83.4 °F 48 °F 30.29 in SW 2.1 mph 7 mph 29.1% 0.00 in 266 W/m2
17:44 83.5 °F 49.4 °F 30.29 in WSW 2.2 mph 10 mph 30.6% 0.00 in 139 W/m2
17:49 83.5 °F 49.8 °F 30.29 in WSW 1.3 mph 10 mph 31.1% 0.00 in 123 W/m2
17:54 83.4 °F 48.4 °F 30.29 in SW 4.1 mph 10 mph 29.6% 0.00 in 116 W/m2
17:59 83.2 °F 48.3 °F 30.29 in SW 3.4 mph 12 mph 29.7% 0.00 in 100 W/m2
18:04 83.1 °F 48.8 °F 30.29 in WSW 3.4 mph 10 mph 30.3% 0.00 in 93 W/m2
18:09 82.8 °F 48.5 °F 30.29 in SW 2 mph 10 mph 30.3% 0.00 in 91 W/m2
18:14 82.6 °F 49 °F 30.29 in WSW 3 mph 10 mph 31% 0.00 in 74 W/m2
18:19 82.5 °F 49.3 °F 30.29 in WSW 3.4 mph 12 mph 31.6% 0.00 in 72 W/m2
18:24 82.3 °F 48.3 °F 30.29 in WSW 2.3 mph 12 mph 30.7% 0.00 in 93 W/m2
18:29 82.1 °F 49.6 °F 30.29 in SW 1 mph 6 mph 32.3% 0.00 in 70 W/m2
18:34 81.9 °F 49.6 °F 30.29 in WSW 2.2 mph 8 mph 32.5% 0.00 in 63 W/m2
18:39 81.9 °F 49.3 °F 30.29 in SW 1 mph 8 mph 32.1% 0.00 in 72 W/m2
18:44 81.8 °F 48.8 °F 30.30 in SW 2.1 mph 8 mph 31.8% 0.00 in 76 W/m2
18:49 81.7 °F 49.2 °F 30.30 in South 1.9 mph 7 mph 32.2% 0.00 in 76 W/m2
18:54 81.5 °F 48.7 °F 30.30 in SW 2.8 mph 11 mph 31.9% 0.00 in 69 W/m2
18:59 81.2 °F 48.7 °F 30.30 in SSW 1.8 mph 7 mph 32.2% 0.00 in 72 W/m2
19:04 81.1 °F 49.6 °F 30.30 in SSW 1.8 mph 11 mph 33.3% 0.00 in 74 W/m2
19:09 80.9 °F 49.5 °F 30.30 in SSW 1.8 mph 7 mph 33.4% 0.00 in 72 W/m2
19:14 80.6 °F 49.7 °F 30.30 in SSW 2.6 mph 6 mph 34% 0.00 in 60 W/m2
19:19 80.4 °F 50.1 °F 30.29 in SSW 1.8 mph 6 mph 34.8% 0.00 in 58 W/m2
19:24 80 °F 50.4 °F 30.29 in SSW 3.6 mph 7 mph 35.7% 0.00 in 51 W/m2
19:29 79.4 °F 50.3 °F 30.30 in South 3.4 mph 10 mph 36.2% 0.00 in 39 W/m2
19:34 78.9 °F 50.4 °F 30.30 in South 2.2 mph 8 mph 37% 0.00 in 32 W/m2
19:39 78.4 °F 50.7 °F 30.30 in South 2.9 mph 8 mph 37.9% 0.00 in 28 W/m2
19:44 78 °F 50.5 °F 30.31 in SSW 2.2 mph 6 mph 38.3% 0.00 in 25 W/m2
19:49 77.6 °F 50.7 °F 30.31 in WSW 1.7 mph 5 mph 39% 0.00 in 23 W/m2
19:54 77.1 °F 50.8 °F 30.31 in SW 2 mph 7 mph 39.8% 0.00 in 19 W/m2
19:59 76.8 °F 50.9 °F 30.31 in WSW 1.8 mph 6 mph 40.3% 0.00 in 14 W/m2
20:04 76.4 °F 50.8 °F 30.31 in WSW 1.7 mph 6 mph 40.7% 0.00 in 11 W/m2
20:09 76.1 °F 50.9 °F 30.31 in SW 1.2 mph 5 mph 41.2% 0.00 in 7 W/m2
20:14 75.8 °F 50.8 °F 30.32 in SW 1.4 mph 3 mph 41.5% 0.00 in 5 W/m2
20:19 75.5 °F 51 °F 30.32 in WSW 0.8 mph 3 mph 42.3% 0.00 in 0 W/m2
20:24 75.2 °F 50.9 °F 30.32 in WSW 1.1 mph 3 mph 42.5% 0.00 in 0 W/m2
20:29 74.9 °F 50.9 °F 30.32 in South 1.2 mph 4 mph 43% 0.00 in 0 W/m2
20:34 74.7 °F 50.7 °F 30.32 in WSW 1.2 mph 6 mph 42.9% 0.00 in 0 W/m2
20:39 74.5 °F 51.3 °F 30.32 in WNW 0.7 mph 2 mph 44.2% 0.00 in 0 W/m2
20:44 74.3 °F 51.8 °F 30.33 in NW 0.2 mph 2 mph 45.5% 0.00 in 0 W/m2
20:49 73.9 °F 52 °F 30.33 in NW 0.4 mph 2 mph 46.2% 0.00 in 0 W/m2
20:54 73.7 °F 52.1 °F 30.33 in NW 0.5 mph 2 mph 46.8% 0.00 in 0 W/m2
20:59 73.4 °F 52.3 °F 30.35 in Calm   1 mph 47.6% 0.00 in 0 W/m2
21:04 73.1 °F 53.4 °F 30.35 in West 0.5 mph 2 mph 50.1% 0.00 in 0 W/m2
21:09 72.7 °F 56.1 °F 30.35 in Calm   2 mph 56.1% 0.00 in 0 W/m2
21:14 71.9 °F 57.9 °F 30.35 in Calm   1 mph 61.5% 0.00 in 0 W/m2
21:19 70.9 °F 59.1 °F 30.34 in Calm     66.3% 0.00 in 0 W/m2
21:24 70.2 °F 59.4 °F 30.34 in WSW 0.2 mph 1 mph 68.6% 0.00 in 0 W/m2
21:29 69.1 °F 59.7 °F 30.34 in WSW 0.1 mph 2 mph 71.8% 0.00 in 0 W/m2
21:34 68.4 °F 59.4 °F 30.33 in WSW 0.1 mph 1 mph 73% 0.00 in 0 W/m2
21:39 67.8 °F 57.8 °F 30.33 in WNW 0.9 mph 2 mph 70.3% 0.00 in 0 W/m2
21:44 68 °F 54.4 °F 30.34 in NW 1.1 mph 3 mph 61.7% 0.00 in 0 W/m2
21:49 68.8 °F 53.7 °F 30.34 in NW 0.2 mph 2 mph 58.5% 0.00 in 0 W/m2
21:54 69.3 °F 54 °F 30.34 in Calm   1 mph 58.2% 0.00 in 0 W/m2
21:59 69.5 °F 55.1 °F 30.34 in Calm   1 mph 60.1% 0.00 in 0 W/m2
22:04 69.5 °F 56.1 °F 30.34 in Calm     62.4% 0.00 in 0 W/m2
22:09 69.3 °F 57.3 °F 30.34 in Calm     65.5% 0.00 in 0 W/m2
22:14 69 °F 57.2 °F 30.34 in Calm     66% 0.00 in 0 W/m2
22:19 68.6 °F 57.5 °F 30.34 in Calm     67.8% 0.00 in 0 W/m2
22:24 68.2 °F 58 °F 30.34 in Calm     69.8% 0.00 in 0 W/m2
22:29 67.8 °F 58 °F 30.35 in Calm     70.8% 0.00 in 0 W/m2
22:34 67.4 °F 57.4 °F 30.35 in Calm     70.3% 0.00 in 0 W/m2
22:39 67 °F 56.9 °F 30.35 in Calm     70% 0.00 in 0 W/m2
22:44 66.8 °F 56.7 °F 30.35 in Calm     70% 0.00 in 0 W/m2
22:49 66.5 °F 56.7 °F 30.35 in NW 0.1 mph 1 mph 70.6% 0.00 in 0 W/m2
22:54 66.2 °F 56.6 °F 30.35 in Calm     71% 0.00 in 0 W/m2
22:59 65.9 °F 56.3 °F 30.35 in West 0.1 mph 2 mph 71% 0.00 in 0 W/m2
23:04 65.7 °F 56 °F 30.35 in Calm   2 mph 71% 0.00 in 0 W/m2
23:09 65.5 °F 55.7 °F 30.35 in West 0.3 mph 1 mph 70.5% 0.00 in 0 W/m2
23:14 65.4 °F 55.8 °F 30.35 in West 0.1 mph 1 mph 71% 0.00 in 0 W/m2
23:19 65.4 °F 55.8 °F 30.35 in Calm     71% 0.00 in 0 W/m2
23:24 65.3 °F 55.7 °F 30.35 in Calm     71% 0.00 in 0 W/m2
23:29 65.3 °F 55.7 °F 30.35 in Calm     71% 0.00 in 0 W/m2
23:34 65.3 °F 55.8 °F 30.35 in Calm     71.5% 0.00 in 0 W/m2
23:39 65.1 °F 55.7 °F 30.35 in Calm     71.5% 0.00 in 0 W/m2
23:44 64.9 °F 55.7 °F 30.36 in Calm     72% 0.00 in 0 W/m2
23:49 64.8 °F 55.9 °F 30.36 in Calm     72.8% 0.00 in 0 W/m2
23:54 64.7 °F 55.7 °F 30.36 in Calm     72.7% 0.00 in 0 W/m2
23:59 64.5 °F 55.5 °F 30.36 in Calm     72.6% 0.00 in 0 W/m2
Lisbon, New Hampshire, USA
Compliments of Weather Underground - 4 mb